createdAt,value
2023-02-08T00:01:18.307Z,-4.46
2023-02-08T00:03:47.352Z,-4.53
2023-02-08T00:06:16.167Z,-4.55
2023-02-08T00:08:44.790Z,-4.55
2023-02-08T00:11:13.687Z,-4.74
2023-02-08T00:13:43.019Z,-4.55
2023-02-08T00:16:14.715Z,-4.55
2023-02-08T00:18:43.119Z,-4.54
2023-02-08T00:21:12.228Z,-4.57
2023-02-08T00:23:40.825Z,-4.57
2023-02-08T00:26:09.395Z,-4.56
2023-02-08T00:28:38.014Z,-5.19
2023-02-08T00:31:06.946Z,-4.56
2023-02-08T00:33:36.590Z,-4.49
2023-02-08T00:36:08.832Z,-4.47
2023-02-08T00:38:37.424Z,-4.55
2023-02-08T00:41:06.255Z,-4.62
2023-02-08T00:43:34.620Z,-4.65
2023-02-08T00:46:02.886Z,-4.69
2023-02-08T00:48:31.761Z,-4.73
2023-02-08T00:51:03.615Z,-4.76
2023-02-08T00:53:32.387Z,-4.78
2023-02-08T00:56:00.470Z,-4.75
2023-02-08T00:58:28.583Z,-4.77
2023-02-08T01:00:56.775Z,-4.76
2023-02-08T01:03:25.665Z,-4.79
2023-02-08T01:05:54.029Z,-4.82
2023-02-08T01:08:23.545Z,-5.00
2023-02-08T01:10:51.667Z,-4.90
2023-02-08T01:13:20.004Z,-4.86
2023-02-08T01:15:48.145Z,-4.93
2023-02-08T01:18:16.830Z,-5.53
2023-02-08T01:20:44.931Z,-4.93
2023-02-08T01:23:13.047Z,-4.93
2023-02-08T01:25:42.661Z,-4.94
2023-02-08T01:28:10.766Z,-4.99
2023-02-08T01:30:39.457Z,-5.01
2023-02-08T01:33:07.838Z,-5.02
2023-02-08T01:35:35.955Z,-4.98
2023-02-08T01:38:04.063Z,-5.03
2023-02-08T01:40:32.267Z,-5.33
2023-02-08T01:43:01.733Z,-5.73
2023-02-08T01:45:31.997Z,-4.94
2023-02-08T01:48:09.431Z,-4.90
2023-02-08T01:50:46.388Z,-4.94
2023-02-08T01:53:15.096Z,-5.08
2023-02-08T01:55:48.935Z,-5.17
2023-02-08T01:58:20.682Z,-5.21
2023-02-08T02:00:49.960Z,-5.37
2023-02-08T02:03:20.210Z,-5.66
2023-02-08T02:05:53.283Z,-5.38
2023-02-08T02:08:21.683Z,-5.59
2023-02-08T02:10:50.881Z,-5.34
2023-02-08T02:13:22.599Z,-6.05
2023-02-08T02:15:51.503Z,-5.39
2023-02-08T02:18:24.767Z,-5.57
2023-02-08T02:21:21.044Z,-5.25
2023-02-08T02:24:30.219Z,-5.34
2023-02-08T02:27:16.058Z,-5.38
2023-02-08T02:30:25.082Z,-5.42
2023-02-08T02:33:08.853Z,-5.28
2023-02-08T02:35:45.603Z,-5.33
2023-02-08T02:38:19.665Z,-5.40
2023-02-08T02:40:55.624Z,-5.73
2023-02-08T02:43:46.251Z,-5.47
2023-02-08T02:46:28.933Z,-5.28
2023-02-08T02:49:05.686Z,-6.21
2023-02-08T02:51:41.556Z,-6.16
2023-02-08T02:54:15.733Z,-5.51
2023-02-08T02:56:47.294Z,-6.47
2023-02-08T02:59:16.929Z,-5.46
2023-02-08T03:01:46.484Z,-5.61
2023-02-08T03:04:18.112Z,-5.55
2023-02-08T03:07:01.539Z,-5.60
2023-02-08T03:09:54.077Z,-5.63
2023-02-08T03:12:35.598Z,-5.63
2023-02-08T03:15:11.211Z,-5.75
2023-02-08T03:17:55.588Z,-5.62
2023-02-08T03:20:30.561Z,-5.66
2023-02-08T03:23:03.926Z,-5.66
2023-02-08T03:25:38.925Z,-5.72
2023-02-08T03:28:15.591Z,-5.70
2023-02-08T03:30:51.387Z,-5.69
2023-02-08T03:33:26.971Z,-5.69
2023-02-08T03:36:01.793Z,-5.72
2023-02-08T03:38:35.090Z,-5.72
2023-02-08T03:41:07.648Z,-5.78
2023-02-08T03:43:39.934Z,-5.79
2023-02-08T03:46:17.620Z,-5.76
2023-02-08T03:48:51.089Z,-5.70
2023-02-08T03:51:23.302Z,-5.54
2023-02-08T03:53:54.801Z,-5.65
2023-02-08T03:56:32.766Z,-6.11
2023-02-08T03:59:05.075Z,-6.09
2023-02-08T04:01:37.575Z,-6.34
2023-02-08T04:04:06.149Z,-5.84
2023-02-08T04:06:36.004Z,-5.71
2023-02-08T04:09:04.122Z,-5.80
2023-02-08T04:11:32.547Z,-5.92
2023-02-08T04:14:00.747Z,-5.91
2023-02-08T04:16:28.822Z,-6.26
2023-02-08T04:18:56.945Z,-5.94
2023-02-08T04:21:25.103Z,-6.85
2023-02-08T04:23:54.622Z,-6.15
2023-02-08T04:26:22.768Z,-6.43
2023-02-08T04:28:50.906Z,-6.18
2023-02-08T04:31:19.179Z,-6.08
2023-02-08T04:33:47.311Z,-6.23
2023-02-08T04:36:15.458Z,-6.03
2023-02-08T04:38:43.565Z,-6.13
2023-02-08T04:41:13.210Z,-5.93
2023-02-08T04:43:41.285Z,-5.93
2023-02-08T04:46:09.502Z,-5.95
2023-02-08T04:48:37.663Z,-6.00
2023-02-08T04:51:05.913Z,-5.96
2023-02-08T04:53:34.929Z,-5.89
2023-02-08T04:56:03.070Z,-5.95
2023-02-08T04:58:32.584Z,-6.03
2023-02-08T05:01:00.807Z,-5.97
2023-02-08T05:03:28.925Z,-5.99
2023-02-08T05:06:00.861Z,-5.93
2023-02-08T05:08:29.355Z,-5.98
2023-02-08T05:10:57.509Z,-6.02
2023-02-08T05:13:25.810Z,-6.18
2023-02-08T05:15:55.410Z,-7.16
2023-02-08T05:18:23.562Z,-5.95
2023-02-08T05:20:58.260Z,-5.88
2023-02-08T05:23:26.507Z,-5.73
2023-02-08T05:25:54.655Z,-5.63
2023-02-08T05:28:22.980Z,-6.48
2023-02-08T05:30:51.320Z,-5.52
2023-02-08T05:33:20.877Z,-5.43
2023-02-08T05:35:49.062Z,-5.31
2023-02-08T05:38:17.197Z,-5.26
2023-02-08T05:40:45.227Z,-5.35
2023-02-08T05:43:13.340Z,-5.52
2023-02-08T05:45:41.456Z,-5.37
2023-02-08T05:48:09.622Z,-5.01
2023-02-08T05:50:39.608Z,-4.99
2023-02-08T05:53:07.922Z,-5.09
2023-02-08T05:55:36.213Z,-4.86
2023-02-08T05:58:04.378Z,-5.46
2023-02-08T06:00:32.489Z,-4.85
2023-02-08T06:03:00.659Z,-4.78
2023-02-08T06:05:28.863Z,-4.64
2023-02-08T06:07:58.439Z,-4.80
2023-02-08T06:10:26.645Z,-4.73
2023-02-08T06:12:54.765Z,-4.89
2023-02-08T06:15:22.994Z,-4.86
2023-02-08T06:17:51.720Z,-4.99
2023-02-08T06:20:20.063Z,-6.44
2023-02-08T06:22:48.386Z,-4.74
2023-02-08T06:25:18.234Z,-4.83
2023-02-08T06:27:46.463Z,-4.70
2023-02-08T06:30:15.021Z,-4.78
2023-02-08T06:32:43.236Z,-4.85
2023-02-08T06:35:12.016Z,-4.85
2023-02-08T06:37:40.461Z,-5.95
2023-02-08T06:40:09.549Z,-4.92
2023-02-08T06:42:39.187Z,-4.73
2023-02-08T06:45:11.020Z,-4.66
2023-02-08T06:47:40.289Z,-4.65
2023-02-08T06:50:08.863Z,-4.67
2023-02-08T06:52:37.544Z,-4.72
2023-02-08T06:55:06.416Z,-4.65
2023-02-08T06:57:34.677Z,-4.58
2023-02-08T07:00:04.949Z,-4.55
2023-02-08T07:02:33.868Z,-4.69
2023-02-08T07:05:02.073Z,-4.39
2023-02-08T07:07:30.263Z,-4.29
2023-02-08T07:09:58.738Z,-4.28
2023-02-08T07:12:26.945Z,-4.25
2023-02-08T07:14:55.223Z,-4.18
2023-02-08T07:17:24.859Z,-5.06
2023-02-08T07:19:53.186Z,-4.02
2023-02-08T07:22:21.612Z,-4.06
2023-02-08T07:24:49.793Z,-3.99
2023-02-08T07:27:17.903Z,-4.00
2023-02-08T07:29:46.083Z,-3.95
2023-02-08T07:32:14.352Z,-3.93
2023-02-08T07:34:44.082Z,-3.98
2023-02-08T07:37:12.415Z,-3.80
2023-02-08T07:39:40.567Z,-3.70
2023-02-08T07:42:09.823Z,-3.69
2023-02-08T07:44:39.038Z,-4.04
2023-02-08T07:47:07.955Z,-3.63
2023-02-08T07:49:36.402Z,-3.37
2023-02-08T07:52:06.138Z,-3.18
2023-02-08T07:54:34.454Z,-3.05
2023-02-08T07:57:03.812Z,-2.87
2023-02-08T07:59:32.091Z,-2.73
2023-02-08T08:02:00.373Z,-2.58
2023-02-08T08:04:28.730Z,-2.58
2023-02-08T08:06:56.951Z,-2.57
2023-02-08T08:09:26.798Z,-2.59
2023-02-08T08:11:55.080Z,-2.57
2023-02-08T08:14:23.407Z,-2.48
2023-02-08T08:16:51.831Z,-2.39
2023-02-08T08:19:20.049Z,-2.73
2023-02-08T08:21:48.309Z,-2.87
2023-02-08T08:24:16.490Z,-2.18
2023-02-08T08:26:46.152Z,-2.43
2023-02-08T08:29:15.101Z,-2.39
2023-02-08T08:31:44.958Z,-2.30
2023-02-08T08:34:13.150Z,-2.21
2023-02-08T08:36:41.514Z,-2.14
2023-02-08T08:39:09.780Z,-2.00
2023-02-08T08:41:38.208Z,-1.98
2023-02-08T08:44:07.950Z,-1.79
2023-02-08T08:46:36.172Z,-1.80
2023-02-08T08:49:04.381Z,-1.73
2023-02-08T08:51:35.419Z,-2.07
2023-02-08T08:54:03.830Z,-1.73
2023-02-08T08:56:32.068Z,-2.11
2023-02-08T08:59:00.388Z,-1.83
2023-02-08T09:01:30.649Z,-1.49
2023-02-08T09:04:00.058Z,-1.29
2023-02-08T09:06:28.445Z,-1.24
2023-02-08T09:08:56.676Z,-1.32
2023-02-08T09:11:24.998Z,-1.88
2023-02-08T09:13:55.898Z,-1.55
2023-02-08T09:16:25.369Z,-1.65
2023-02-08T09:18:55.159Z,-1.72
2023-02-08T09:21:25.596Z,-1.76
2023-02-08T09:23:53.768Z,-2.07
2023-02-08T09:26:22.530Z,-1.80
2023-02-08T09:28:50.676Z,-1.58
2023-02-08T09:31:21.665Z,-1.56
2023-02-08T09:33:50.637Z,-1.84
2023-02-08T09:36:21.116Z,-1.50
2023-02-08T09:38:51.790Z,-1.57
2023-02-08T09:41:33.996Z,-1.39
2023-02-08T09:44:16.577Z,-1.28
2023-02-08T09:46:51.892Z,-1.51
2023-02-08T09:49:25.371Z,-0.85
2023-02-08T09:52:00.301Z,-0.70
2023-02-08T09:54:33.721Z,-0.50
2023-02-08T09:57:07.179Z,-0.74
2023-02-08T09:59:36.790Z,-0.11
2023-02-08T10:02:19.460Z,-0.54
2023-02-08T10:04:58.664Z,0.18
2023-02-08T10:07:29.068Z,0.28
2023-02-08T10:10:00.939Z,0.25
2023-02-08T10:12:43.175Z,0.56
2023-02-08T10:15:23.005Z,0.60
2023-02-08T10:18:10.098Z,-0.18
2023-02-08T10:20:51.780Z,0.61
2023-02-08T10:23:38.660Z,0.35
2023-02-08T10:26:14.984Z,0.77
2023-02-08T10:28:59.136Z,0.63
2023-02-08T10:31:39.852Z,1.13
2023-02-08T10:34:18.907Z,1.28
2023-02-08T10:36:47.677Z,1.11
2023-02-08T10:39:19.713Z,1.04
2023-02-08T10:41:48.748Z,1.00
2023-02-08T10:44:28.189Z,0.95
2023-02-08T10:47:10.246Z,0.74
2023-02-08T10:49:44.225Z,0.75
2023-02-08T10:52:12.570Z,0.78
2023-02-08T10:54:42.227Z,0.62
2023-02-08T10:57:16.245Z,0.86
2023-02-08T10:59:50.934Z,0.84
2023-02-08T11:02:23.983Z,0.80
2023-02-08T11:05:04.304Z,0.77
2023-02-08T11:07:35.303Z,0.74
2023-02-08T11:10:25.199Z,0.92
2023-02-08T11:12:58.742Z,0.94
2023-02-08T11:15:30.780Z,0.92
2023-02-08T11:18:02.106Z,0.77
2023-02-08T11:20:36.808Z,0.89
2023-02-08T11:23:06.304Z,1.00
2023-02-08T11:25:39.262Z,0.87
2023-02-08T11:28:24.580Z,1.05
2023-02-08T11:30:58.087Z,1.09
2023-02-08T11:33:27.573Z,0.73
2023-02-08T11:36:03.155Z,0.85
2023-02-08T11:38:32.694Z,0.61
2023-02-08T11:41:05.038Z,0.79
2023-02-08T11:43:36.014Z,0.76
2023-02-08T11:46:06.239Z,0.83
2023-02-08T11:48:42.167Z,0.81
2023-02-08T11:51:13.644Z,0.92
2023-02-08T11:53:47.220Z,0.83
2023-02-08T11:56:22.505Z,0.85
2023-02-08T11:58:59.956Z,0.94
2023-02-08T12:01:30.370Z,1.03
2023-02-08T12:04:01.243Z,1.14
2023-02-08T12:06:49.929Z,1.25
2023-02-08T12:09:29.321Z,1.30
2023-02-08T12:12:07.568Z,1.40
2023-02-08T12:14:49.259Z,1.48
2023-02-08T12:17:42.637Z,1.43
2023-02-08T12:20:37.643Z,1.56
2023-02-08T12:23:36.265Z,1.01
2023-02-08T12:26:12.403Z,1.35
2023-02-08T12:28:54.480Z,1.49
2023-02-08T12:31:38.584Z,1.43
2023-02-08T12:34:15.038Z,1.47
2023-02-08T12:37:18.627Z,1.50
2023-02-08T12:40:10.674Z,1.45
2023-02-08T12:42:53.354Z,1.52
2023-02-08T12:45:55.754Z,1.58
2023-02-08T12:48:45.624Z,1.51
2023-02-08T12:51:25.008Z,1.51
2023-02-08T12:53:57.626Z,1.19
2023-02-08T12:56:31.866Z,0.22
2023-02-08T12:59:13.031Z,1.02
2023-02-08T13:01:46.569Z,1.32
2023-02-08T13:04:30.436Z,1.40
2023-02-08T13:07:02.068Z,1.33
2023-02-08T13:09:44.620Z,1.30
2023-02-08T13:12:17.303Z,1.79
2023-02-08T13:14:48.547Z,1.78
2023-02-08T13:17:23.621Z,1.96
2023-02-08T13:20:00.969Z,1.81
2023-02-08T13:22:33.529Z,1.78
2023-02-08T13:25:08.480Z,2.42
2023-02-08T13:27:37.191Z,2.28
2023-02-08T13:30:07.577Z,2.64
2023-02-08T13:32:44.318Z,2.96
2023-02-08T13:35:18.309Z,3.43
2023-02-08T13:37:52.669Z,3.98
2023-02-08T13:40:28.276Z,4.38
2023-02-08T13:43:01.499Z,4.46
2023-02-08T13:45:33.082Z,4.58
2023-02-08T13:48:04.699Z,4.59
2023-02-08T13:50:49.001Z,4.87
2023-02-08T13:53:18.911Z,5.83
2023-02-08T13:55:56.340Z,6.82
2023-02-08T13:58:59.252Z,7.40
2023-02-08T14:01:29.038Z,8.28
2023-02-08T14:04:34.538Z,8.77
2023-02-08T14:07:15.436Z,8.78
2023-02-08T14:09:50.306Z,8.65
2023-02-08T14:12:25.684Z,9.30
2023-02-08T14:15:25.920Z,10.42
2023-02-08T14:17:58.329Z,11.58
2023-02-08T14:20:39.486Z,11.31
2023-02-08T14:23:21.814Z,9.65
2023-02-08T14:25:52.323Z,7.88
2023-02-08T14:28:27.936Z,6.87
2023-02-08T14:30:59.150Z,6.80
2023-02-08T14:33:29.785Z,6.82
2023-02-08T14:36:02.083Z,6.32
2023-02-08T14:38:55.585Z,5.50
2023-02-08T14:41:47.066Z,4.88
2023-02-08T14:44:54.412Z,4.37
2023-02-08T14:47:58.771Z,3.87
2023-02-08T14:50:31.257Z,3.49
2023-02-08T14:53:07.921Z,3.15
2023-02-08T14:55:44.790Z,2.89
2023-02-08T14:58:17.300Z,2.53
2023-02-08T15:00:47.041Z,2.34
2023-02-08T15:03:19.778Z,1.81
2023-02-08T15:06:04.073Z,2.07
2023-02-08T15:08:34.529Z,1.40
2023-02-08T15:11:02.897Z,1.33
2023-02-08T15:13:31.630Z,1.29
2023-02-08T15:16:01.660Z,1.22
2023-02-08T15:18:33.347Z,0.85
2023-02-08T15:21:04.933Z,0.99
2023-02-08T15:23:34.804Z,0.87
2023-02-08T15:26:05.311Z,0.68
2023-02-08T15:28:36.429Z,0.82
2023-02-08T15:31:09.381Z,0.72
2023-02-08T15:33:40.757Z,0.51
2023-02-08T15:36:15.941Z,0.32
2023-02-08T15:38:46.335Z,0.11
2023-02-08T15:41:16.655Z,0.23
2023-02-08T15:43:44.929Z,0.41
2023-02-08T15:46:21.605Z,0.19
2023-02-08T15:48:51.450Z,0.29
2023-02-08T15:51:23.209Z,0.26
2023-02-08T15:53:55.131Z,0.16
2023-02-08T15:56:36.495Z,-0.14
2023-02-08T15:59:09.088Z,0.05
2023-02-08T16:01:37.294Z,-0.05
2023-02-08T16:04:12.403Z,-0.05
2023-02-08T16:06:46.568Z,-0.20
2023-02-08T16:09:20.160Z,-0.18
2023-02-08T16:11:50.428Z,-0.26
2023-02-08T16:14:24.821Z,-0.92
2023-02-08T16:16:57.887Z,-0.39
2023-02-08T16:19:29.666Z,-0.43
2023-02-08T16:22:16.326Z,-0.77
2023-02-08T16:24:47.764Z,-1.47
2023-02-08T16:27:25.764Z,-1.32
2023-02-08T16:29:54.458Z,-0.47
2023-02-08T16:32:28.533Z,-0.29
2023-02-08T16:34:56.964Z,-0.37
2023-02-08T16:37:28.446Z,-0.45
2023-02-08T16:39:59.548Z,-0.39
2023-02-08T16:42:30.902Z,-0.24
2023-02-08T16:45:18.336Z,-0.18
2023-02-08T16:47:49.601Z,-0.56
2023-02-08T16:50:20.315Z,-1.38
2023-02-08T16:52:50.954Z,-1.58
2023-02-08T16:55:23.364Z,-0.28
2023-02-08T16:57:53.534Z,-0.28
2023-02-08T17:00:25.589Z,-0.30
2023-02-08T17:02:54.017Z,-0.41
2023-02-08T17:05:24.985Z,-0.42
2023-02-08T17:07:53.439Z,-0.47
2023-02-08T17:10:28.914Z,-0.51
2023-02-08T17:13:13.456Z,-0.49
2023-02-08T17:15:46.516Z,-0.50
2023-02-08T17:18:15.515Z,-0.65
2023-02-08T17:20:44.682Z,-0.27
2023-02-08T17:23:15.588Z,-0.27
2023-02-08T17:25:46.048Z,-0.24
2023-02-08T17:28:19.387Z,-0.25
2023-02-08T17:30:48.990Z,-0.26
2023-02-08T17:33:19.041Z,-0.35
2023-02-08T17:35:51.120Z,-0.27
2023-02-08T17:38:19.711Z,-0.94
2023-02-08T17:40:49.293Z,-1.53
2023-02-08T17:43:17.519Z,-1.04
2023-02-08T17:45:46.382Z,-0.42
2023-02-08T17:48:14.665Z,-1.37
2023-02-08T17:50:44.283Z,-0.75
2023-02-08T17:53:12.659Z,-0.41
2023-02-08T17:55:43.119Z,-0.44
2023-02-08T17:58:13.491Z,-0.47
2023-02-08T18:00:41.816Z,-0.43
2023-02-08T18:03:10.373Z,-0.40
2023-02-08T18:05:38.869Z,-0.46
2023-02-08T18:08:07.036Z,-0.44
2023-02-08T18:10:35.198Z,-0.45
2023-02-08T18:13:03.367Z,-0.48
2023-02-08T18:15:32.918Z,-0.48
2023-02-08T18:18:01.065Z,-0.55
2023-02-08T18:20:29.164Z,-0.50
2023-02-08T18:22:57.276Z,-0.46
2023-02-08T18:25:25.460Z,-0.51
2023-02-08T18:27:53.645Z,-0.65
2023-02-08T18:30:22.819Z,-0.94
2023-02-08T18:32:52.358Z,-0.68
2023-02-08T18:35:20.893Z,-0.69
2023-02-08T18:37:49.635Z,-0.65
2023-02-08T18:40:18.525Z,-0.53
2023-02-08T18:42:46.732Z,-0.83
2023-02-08T18:45:14.919Z,-0.58
2023-02-08T18:47:43.085Z,-0.59
2023-02-08T18:50:12.837Z,-0.58
2023-02-08T18:52:40.967Z,-0.59
2023-02-08T18:55:09.586Z,-0.62
2023-02-08T18:57:39.001Z,-0.56
2023-02-08T19:00:07.993Z,-0.74
2023-02-08T19:02:37.996Z,-0.68
2023-02-08T19:05:08.146Z,-0.48
2023-02-08T19:07:38.922Z,-0.52
2023-02-08T19:10:08.678Z,-0.79
2023-02-08T19:12:37.368Z,-0.57
2023-02-08T19:15:05.938Z,-0.56
2023-02-08T19:17:34.108Z,-0.65
2023-02-08T19:20:02.267Z,-0.66
2023-02-08T19:22:30.460Z,-0.59
2023-02-08T19:25:00.015Z,-0.90
2023-02-08T19:27:28.120Z,-0.68
2023-02-08T19:29:56.561Z,-0.73
2023-02-08T19:32:25.001Z,-0.66
2023-02-08T19:34:53.220Z,-0.64
2023-02-08T19:37:21.681Z,-0.58
2023-02-08T19:39:49.952Z,-0.57
2023-02-08T19:42:19.528Z,-0.73
2023-02-08T19:44:47.663Z,-0.65
2023-02-08T19:47:15.827Z,-0.68
2023-02-08T19:49:44.554Z,-0.69
2023-02-08T19:52:13.357Z,-0.66
2023-02-08T19:54:41.631Z,-0.67
2023-02-08T19:57:11.930Z,-0.80
2023-02-08T19:59:41.928Z,-0.66
2023-02-08T20:02:12.481Z,-0.71
2023-02-08T20:04:41.098Z,-0.60
2023-02-08T20:07:09.528Z,-0.60
2023-02-08T20:09:38.395Z,-0.66
2023-02-08T20:12:07.097Z,-1.03
2023-02-08T20:14:35.240Z,-0.67
2023-02-08T20:17:05.543Z,-0.74
2023-02-08T20:19:37.403Z,-0.66
2023-02-08T20:22:05.763Z,-0.67
2023-02-08T20:24:34.449Z,-1.04
2023-02-08T20:27:02.574Z,-0.66
2023-02-08T20:29:30.884Z,-0.65
2023-02-08T20:31:59.672Z,-0.63
2023-02-08T20:34:29.340Z,-0.66
2023-02-08T20:37:07.753Z,-0.73
2023-02-08T20:39:37.284Z,-0.61
2023-02-08T20:42:06.083Z,-0.64
2023-02-08T20:44:34.307Z,-0.74
2023-02-08T20:47:02.646Z,-0.68
2023-02-08T20:49:32.550Z,-0.80
2023-02-08T20:52:00.823Z,-0.81
2023-02-08T20:54:29.087Z,-0.93
2023-02-08T20:56:57.380Z,-0.69
2023-02-08T20:59:25.580Z,-0.67
2023-02-08T21:01:53.761Z,-0.91
2023-02-08T21:04:23.668Z,-2.09
2023-02-08T21:06:53.704Z,-0.71
2023-02-08T21:09:22.389Z,-0.73
2023-02-08T21:11:51.833Z,-0.81
2023-02-08T21:14:21.447Z,-1.27
2023-02-08T21:16:52.189Z,-0.75
2023-02-08T21:19:21.712Z,-0.98
2023-02-08T21:21:53.617Z,-0.52
2023-02-08T21:24:23.989Z,-0.47
2023-02-08T21:26:52.352Z,-0.65
2023-02-08T21:29:20.859Z,-0.55
2023-02-08T21:31:51.867Z,-0.81
2023-02-08T21:34:20.957Z,-0.72
2023-02-08T21:36:49.243Z,-0.78
2023-02-08T21:39:18.816Z,-0.93
2023-02-08T21:41:48.293Z,-0.82
2023-02-08T21:44:16.636Z,-1.20
2023-02-08T21:46:44.750Z,-0.92
2023-02-08T21:49:30.539Z,-0.79
2023-02-08T21:52:16.042Z,-0.80
2023-02-08T21:54:45.973Z,-0.79
2023-02-08T21:57:18.947Z,-0.86
2023-02-08T21:59:48.564Z,-0.76
2023-02-08T22:02:21.900Z,-0.84
2023-02-08T22:05:08.222Z,-1.54
2023-02-08T22:07:44.940Z,-0.88
2023-02-08T22:10:16.542Z,-1.03
2023-02-08T22:12:44.889Z,-0.92
2023-02-08T22:15:15.252Z,-0.92
2023-02-08T22:17:43.747Z,-0.90
2023-02-08T22:20:13.197Z,-1.02
2023-02-08T22:22:41.534Z,-0.96
2023-02-08T22:25:10.099Z,-0.96
2023-02-08T22:27:41.146Z,-0.97
2023-02-08T22:30:11.521Z,-1.00
2023-02-08T22:32:41.047Z,-1.16
2023-02-08T22:35:09.797Z,-1.01
2023-02-08T22:37:38.150Z,-1.43
2023-02-08T22:40:08.006Z,-1.12
2023-02-08T22:42:36.265Z,-1.14
2023-02-08T22:45:06.216Z,-1.13
2023-02-08T22:47:34.796Z,-1.12
2023-02-08T22:50:03.147Z,-1.52
2023-02-08T22:52:34.418Z,-1.00
2023-02-08T22:55:04.228Z,-1.02
2023-02-08T22:57:32.593Z,-1.02
2023-02-08T23:00:00.872Z,-1.05
2023-02-08T23:02:30.547Z,-1.16
2023-02-08T23:04:58.690Z,-1.05
2023-02-08T23:07:26.910Z,-1.09
2023-02-08T23:09:55.046Z,-1.06
2023-02-08T23:12:23.157Z,-1.06
2023-02-08T23:14:51.471Z,-1.03
2023-02-08T23:17:19.605Z,-1.04
2023-02-08T23:19:49.137Z,-1.55
2023-02-08T23:22:17.346Z,-0.93
2023-02-08T23:24:45.473Z,-0.97
2023-02-08T23:27:13.591Z,-1.02
2023-02-08T23:29:41.731Z,-1.09
2023-02-08T23:32:09.898Z,-1.20
2023-02-08T23:34:38.075Z,-1.24
2023-02-08T23:37:07.685Z,-1.40
2023-02-08T23:39:35.798Z,-1.28
2023-02-08T23:42:04.094Z,-1.29
2023-02-08T23:44:32.260Z,-1.58
2023-02-08T23:47:00.506Z,-1.37
2023-02-08T23:49:28.702Z,-1.60
2023-02-08T23:51:56.869Z,-1.49
2023-02-08T23:54:26.479Z,-1.54
2023-02-08T23:56:54.601Z,-1.52
2023-02-08T23:59:22.733Z,-1.55
